Time;durP1;ratioP1;P1;durP2;ratioP2;P2;SDS_P1;SDS_P2;PMS_P1;PMS_P2;Temp;Humidity;BMP_temperature;BMP_pressure;BME280_temperature;BME280_humidity;BME280_pressure;Samples;Min_cycle;Max_cycle;Signal;HPM_P1;HPM_P2
2020/12/07 00:02:34;;;;;;;;;;;;;;;3.96;67.30;97156.66;1802055;77;20817;-86
2020/12/07 00:05:22;;;;;;;;;;;;;;;3.82;67.38;97157.98;1780132;79;22069;-85
2020/12/07 00:08:09;;;;;;;;;;;;;;;3.75;67.46;97159.31;1780285;79;26112;-85
2020/12/07 00:10:56;;;;;;;;;;;;;;;3.71;67.54;97156.06;1780363;79;24626;-85
2020/12/07 00:13:42;;;;;;;;;;;;;;;3.70;67.66;97161.36;1785778;79;20193;-84
2020/12/07 00:16:30;;;;;;;;;;;;;;;3.72;67.74;97156.90;1755105;79;25237;-84
2020/12/07 00:19:17;;;;;;;;;;;;;;;3.71;67.87;97154.77;1781385;79;22301;-84
2020/12/07 00:22:03;;;;;;;;;;;;;;;3.65;67.95;97155.19;1785313;79;26147;-84
2020/12/07 00:24:49;;;;;;;;;;;;;;;3.63;68.05;97151.85;1757916;79;25257;-84
2020/12/07 00:27:36;;;;;;;;;;;;;;;3.65;68.14;97141.42;1778533;79;20331;-84
2020/12/07 00:30:23;;;;;;;;;;;;;;;3.70;68.23;97141.50;1788217;79;25333;-84
2020/12/07 00:33:11;;;;;;;;;;;;;;;3.77;68.32;97145.80;1789239;79;23153;-85
2020/12/07 00:35:58;;;;;;;;;;;;;;;3.77;68.42;97145.34;1780259;79;26142;-84
2020/12/07 00:38:47;;;;;;;;;;;;;;;3.79;68.47;97138.31;1780369;79;24695;-84
2020/12/07 00:41:34;;;;;;;;;;;;;;;3.81;68.55;97130.93;1787635;79;20457;-84
2020/12/07 00:44:26;;;;;;;;;;;;;;;3.79;68.63;97126.67;1784982;79;24691;-85
2020/12/07 00:47:11;;;;;;;;;;;;;;;3.74;68.68;97117.08;1787437;79;22219;-84
2020/12/07 00:49:58;;;;;;;;;;;;;;;3.68;68.76;97111.00;1786754;79;27032;-85
2020/12/07 00:52:44;;;;;;;;;;;;;;;3.65;68.83;97108.62;1749713;79;25015;-85
2020/12/07 00:55:30;;;;;;;;;;;;;;;3.63;68.89;97111.76;1785824;79;20279;-84
2020/12/07 00:58:17;;;;;;;;;;;;;;;3.63;68.96;97103.16;1788852;79;25365;-85
2020/12/07 01:01:04;;;;;;;;;;;;;;;3.63;69.06;97118.22;1758245;79;21674;-84
2020/12/07 01:03:50;;;;;;;;;;;;;;;3.66;69.14;97120.60;1791201;79;26318;-85
2020/12/07 01:06:37;;;;;;;;;;;;;;;3.70;69.22;97116.09;1774761;79;24752;-84
2020/12/07 01:09:23;;;;;;;;;;;;;;;3.77;69.29;97120.76;1770764;79;20195;-84
2020/12/07 01:12:10;;;;;;;;;;;;;;;3.92;69.39;97114.25;1773123;79;24544;-85
2020/12/07 01:14:56;;;;;;;;;;;;;;;3.99;69.46;97109.86;1775083;79;22393;-84
2020/12/07 01:17:47;;;;;;;;;;;;;;;3.99;69.53;97109.86;1760344;79;26129;-84
2020/12/07 01:20:33;;;;;;;;;;;;;;;3.96;69.58;97105.36;1769425;79;24626;-85
2020/12/07 01:23:21;;;;;;;;;;;;;;;3.94;69.64;97111.91;1765148;79;20471;-84
2020/12/07 01:26:07;;;;;;;;;;;;;;;3.90;69.68;97101.86;1778698;79;23635;-85
2020/12/07 01:28:53;;;;;;;;;;;;;;;3.90;69.71;97107.04;1767204;79;22167;-84
2020/12/07 01:31:40;;;;;;;;;;;;;;;3.89;69.76;97110.55;1743383;79;25917;-84
2020/12/07 01:34:27;;;;;;;;;;;;;;;3.91;69.80;97097.06;1753121;79;25342;-85
2020/12/07 01:37:13;;;;;;;;;;;;;;;3.93;69.85;97084.86;1773746;79;20593;-85
2020/12/07 01:40:00;;;;;;;;;;;;;;;3.90;69.91;97070.81;1746190;79;24462;-86
2020/12/07 01:42:46;;;;;;;;;;;;;;;3.86;69.97;97071.95;1743802;79;22233;-85
2020/12/07 01:45:36;;;;;;;;;;;;;;;3.82;70.00;97072.59;1746624;79;26004;-85
2020/12/07 01:48:24;;;;;;;;;;;;;;;3.79;70.08;97064.58;1747752;79;24547;-85
2020/12/07 01:51:11;;;;;;;;;;;;;;;3.83;70.14;97069.08;1784685;79;20517;-86
2020/12/07 01:53:57;;;;;;;;;;;;;;;3.82;70.19;97071.30;1777708;79;24487;-86
2020/12/07 01:56:47;;;;;;;;;;;;;;;3.85;70.24;97072.41;1750871;80;22211;-85
2020/12/07 01:59:32;;;;;;;;;;;;;;;3.98;70.28;97073.75;1771931;79;26129;-85
2020/12/07 02:02:19;;;;;;;;;;;;;;;4.12;70.34;97071.91;1764418;79;24712;-85
2020/12/07 02:05:06;;;;;;;;;;;;;;;4.27;70.39;97072.64;1761109;80;20521;-85
2020/12/07 02:07:52;;;;;;;;;;;;;;;4.31;70.44;97067.61;1767608;80;25463;-85
2020/12/07 02:10:39;;;;;;;;;;;;;;;4.47;70.48;97075.22;1747463;80;21646;-85
2020/12/07 02:13:25;;;;;;;;;;;;;;;4.62;70.52;97060.76;1761888;80;25047;-84
2020/12/07 02:16:12;;;;;;;;;;;;;;;4.48;70.54;97066.02;1763869;80;24807;-85
2020/12/07 02:18:59;;;;;;;;;;;;;;;4.48;70.50;97062.60;1718609;82;20202;-85
2020/12/07 02:21:46;;;;;;;;;;;;;;;4.54;70.50;97054.42;1679396;83;24229;-85
2020/12/07 02:24:32;;;;;;;;;;;;;;;4.35;70.49;97053.55;1706278;83;22392;-85
2020/12/07 02:27:19;;;;;;;;;;;;;;;4.17;70.45;97053.47;1668540;84;25761;-85
2020/12/07 02:30:10;;;;;;;;;;;;;;;4.14;70.38;97056.28;1708354;83;25464;-85
2020/12/07 02:32:57;;;;;;;;;;;;;;;4.10;70.41;97061.27;1708080;83;20485;-85
2020/12/07 02:35:43;;;;;;;;;;;;;;;4.01;70.41;97061.88;1683685;83;24559;-85
2020/12/07 02:38:30;;;;;;;;;;;;;;;4.00;70.38;97058.92;1708166;83;22226;-85
2020/12/07 02:41:16;;;;;;;;;;;;;;;3.83;70.41;97048.84;1712185;83;26117;-85
2020/12/07 02:44:02;;;;;;;;;;;;;;;3.67;70.40;97038.20;1706915;83;24746;-85
2020/12/07 02:46:49;;;;;;;;;;;;;;;3.53;70.42;97047.31;1703674;83;20364;-85
2020/12/07 02:49:35;;;;;;;;;;;;;;;3.44;70.43;97049.67;1707043;83;23756;-85
2020/12/07 02:52:24;;;;;;;;;;;;;;;3.31;70.46;97050.44;1683794;83;22132;-85
2020/12/07 02:55:10;;;;;;;;;;;;;;;3.20;70.50;97063.20;1704452;83;26258;-85
2020/12/07 02:57:56;;;;;;;;;;;;;;;3.31;70.53;97059.94;1708179;83;24578;-85
2020/12/07 03:00:43;;;;;;;;;;;;;;;3.18;70.63;97055.16;1709370;83;20471;-85
2020/12/07 03:03:29;;;;;;;;;;;;;;;3.11;70.69;97061.16;1720996;82;24614;-86
2020/12/07 03:06:16;;;;;;;;;;;;;;;3.06;70.72;97062.38;1720157;82;22243;-86
2020/12/07 03:09:03;;;;;;;;;;;;;;;2.97;70.78;97059.91;1721621;82;26202;-85
2020/12/07 03:11:49;;;;;;;;;;;;;;;2.94;70.84;97051.06;1722467;82;24838;-85
2020/12/07 03:14:35;;;;;;;;;;;;;;;2.95;70.90;97063.03;1726036;82;20510;-85
2020/12/07 03:17:22;;;;;;;;;;;;;;;2.99;70.97;97054.66;1723469;81;24516;-84
2020/12/07 03:20:08;;;;;;;;;;;;;;;2.88;71.06;97054.02;1717245;82;22170;-86
2020/12/07 03:22:55;;;;;;;;;;;;;;;2.77;71.12;97059.84;1721644;82;26107;-85
2020/12/07 03:25:41;;;;;;;;;;;;;;;2.71;71.16;97070.55;1724840;81;24699;-85
2020/12/07 03:28:27;;;;;;;;;;;;;;;2.79;71.22;97055.39;1683172;82;20370;-85
2020/12/07 03:31:15;;;;;;;;;;;;;;;2.75;71.29;97050.05;1720359;82;24632;-85
2020/12/07 03:34:01;;;;;;;;;;;;;;;2.75;71.36;97068.14;1721759;82;22111;-84
2020/12/07 03:36:48;;;;;;;;;;;;;;;2.79;71.44;97047.64;1719719;81;26245;-85
2020/12/07 03:39:34;;;;;;;;;;;;;;;2.75;71.50;97061.67;1693085;82;24844;-84
2020/12/07 03:42:21;;;;;;;;;;;;;;;2.83;71.56;97067.22;1714761;82;20322;-84
2020/12/07 03:45:10;;;;;;;;;;;;;;;2.89;71.61;97059.07;1716717;82;26348;-84
2020/12/07 03:47:55;;;;;;;;;;;;;;;2.84;71.67;97061.56;1720880;82;22146;-84
2020/12/07 03:50:42;;;;;;;;;;;;;;;2.84;71.72;97057.69;1720754;82;26096;-84
2020/12/07 03:53:29;;;;;;;;;;;;;;;2.86;71.76;97048.94;1690265;82;24448;-84
2020/12/07 03:56:15;;;;;;;;;;;;;;;2.81;71.80;97041.94;1681987;82;20262;-84
2020/12/07 03:59:02;;;;;;;;;;;;;;;2.81;71.84;97041.94;1689518;82;24627;-84
2020/12/07 04:01:49;;;;;;;;;;;;;;;2.80;71.89;97041.56;1716487;82;22147;-84
2020/12/07 04:04:42;;;;;;;;;;;;;;;2.79;71.93;97034.73;1713964;82;27038;-84
2020/12/07 04:07:26;;;;;;;;;;;;;;;2.81;71.97;97047.10;1705827;82;24594;-84
2020/12/07 04:10:13;;;;;;;;;;;;;;;2.87;72.03;97049.31;1708439;82;20529;-84
2020/12/07 04:12:59;;;;;;;;;;;;;;;2.91;72.08;97052.53;1711865;82;23603;-84
2020/12/07 04:15:45;;;;;;;;;;;;;;;2.88;72.12;97046.27;1710322;82;22320;-85
2020/12/07 04:18:34;;;;;;;;;;;;;;;2.84;72.18;97043.48;1712816;82;26311;-84
2020/12/07 04:21:20;;;;;;;;;;;;;;;2.75;72.20;97033.27;1701223;82;24819;-85
2020/12/07 04:24:05;;;;;;;;;;;;;;;2.71;72.21;97040.84;1708064;82;20604;-85
2020/12/07 04:26:52;;;;;;;;;;;;;;;2.69;72.30;97046.55;1710002;82;24542;-85
2020/12/07 04:29:39;;;;;;;;;;;;;;;2.70;72.34;97045.63;1709505;82;22112;-85
2020/12/07 04:32:27;;;;;;;;;;;;;;;2.71;72.38;97047.75;1706529;82;26980;-85
2020/12/07 04:35:14;;;;;;;;;;;;;;;2.74;72.43;97053.55;1716508;82;24707;-85
2020/12/07 04:38:04;;;;;;;;;;;;;;;2.81;72.49;97053.56;1707175;82;20477;-86
2020/12/07 04:40:52;;;;;;;;;;;;;;;2.94;72.55;97044.61;1680345;82;24273;-85
2020/12/07 04:43:38;;;;;;;;;;;;;;;2.92;72.62;97058.91;1693342;82;22019;-85
2020/12/07 04:46:25;;;;;;;;;;;;;;;2.92;72.65;97060.20;1722118;82;26198;-85
2020/12/07 04:49:11;;;;;;;;;;;;;;;2.89;72.68;97053.11;1706961;82;24624;-84
2020/12/07 04:51:58;;;;;;;;;;;;;;;2.86;72.72;97057.98;1702168;82;20631;-85
2020/12/07 04:54:46;;;;;;;;;;;;;;;2.84;72.73;97053.36;1709102;82;24774;-85
2020/12/07 04:57:32;;;;;;;;;;;;;;;2.88;72.79;97041.94;1683820;82;22244;-84
2020/12/07 05:00:18;;;;;;;;;;;;;;;2.84;72.83;97042.19;1708677;82;26104;-85
2020/12/07 05:03:06;;;;;;;;;;;;;;;2.95;72.87;97047.53;1689811;82;24578;-85
2020/12/07 05:05:53;;;;;;;;;;;;;;;3.03;72.92;97038.03;1673467;85;20278;-85
2020/12/07 05:08:39;;;;;;;;;;;;;;;3.17;72.97;97058.66;1672596;85;25146;-85
2020/12/07 05:11:26;;;;;;;;;;;;;;;3.12;73.02;97042.61;1669190;85;22081;-85
2020/12/07 05:14:14;;;;;;;;;;;;;;;3.04;73.06;97048.73;1670781;85;26287;-85
2020/12/07 05:17:00;;;;;;;;;;;;;;;3.03;73.06;97067.28;1671312;85;24705;-85
2020/12/07 05:19:47;;;;;;;;;;;;;;;2.98;73.09;97064.16;1675145;85;20351;-85
2020/12/07 05:22:34;;;;;;;;;;;;;;;2.99;73.10;97057.23;1676630;85;24864;-85
2020/12/07 05:25:20;;;;;;;;;;;;;;;2.99;73.12;97068.86;1669730;85;22107;-85
2020/12/07 05:28:06;;;;;;;;;;;;;;;3.06;73.14;97085.63;1670934;85;26121;-85
2020/12/07 05:30:53;;;;;;;;;;;;;;;3.15;73.18;97081.21;1672705;85;24641;-85
2020/12/07 05:33:41;;;;;;;;;;;;;;;3.27;73.22;97074.00;1649175;85;20279;-84
2020/12/07 05:36:29;;;;;;;;;;;;;;;3.29;73.26;97087.17;1645971;85;25324;-85
2020/12/07 05:39:16;;;;;;;;;;;;;;;3.27;73.28;97080.46;1673306;85;21865;-84
2020/12/07 05:42:02;;;;;;;;;;;;;;;3.24;73.31;97071.58;1675213;85;26355;-86
2020/12/07 05:44:50;;;;;;;;;;;;;;;3.18;73.30;97082.30;1662353;85;25436;-86
2020/12/07 05:47:38;;;;;;;;;;;;;;;3.17;73.33;97087.09;1672170;85;20421;-85
2020/12/07 05:50:27;;;;;;;;;;;;;;;3.16;73.34;97087.59;1648625;85;24704;-85
2020/12/07 05:53:14;;;;;;;;;;;;;;;3.27;73.36;97095.97;1646441;85;21925;-85
2020/12/07 05:56:01;;;;;;;;;;;;;;;3.26;73.37;97091.26;1670345;85;26160;-85
2020/12/07 05:58:48;;;;;;;;;;;;;;;3.26;73.40;97093.02;1644896;85;24412;-85
2020/12/07 06:01:35;;;;;;;;;;;;;;;3.30;73.41;97091.89;1668508;85;20689;-85
2020/12/07 06:04:21;;;;;;;;;;;;;;;3.29;73.43;97085.88;1673495;85;25820;-84
2020/12/07 06:07:11;;;;;;;;;;;;;;;3.28;73.46;97096.31;1667679;85;22267;-85
2020/12/07 06:09:58;;;;;;;;;;;;;;;3.27;73.47;97095.97;1645187;85;25912;-85
2020/12/07 06:12:44;;;;;;;;;;;;;;;3.27;73.47;97100.65;1666868;85;24708;-85
2020/12/07 06:15:30;;;;;;;;;;;;;;;3.29;73.49;97100.56;1668384;85;20516;-85
2020/12/07 06:18:17;;;;;;;;;;;;;;;3.26;73.52;97095.59;1673225;85;24696;-85
2020/12/07 06:21:03;;;;;;;;;;;;;;;3.25;73.53;97096.52;1650938;85;23084;-85
2020/12/07 06:23:51;;;;;;;;;;;;;;;3.22;73.54;97103.98;1648501;85;26937;-85
2020/12/07 06:26:39;;;;;;;;;;;;;;;3.24;73.54;97108.61;1673948;85;24643;-86
2020/12/07 06:29:25;;;;;;;;;;;;;;;3.24;73.55;97115.53;1673758;85;20280;-86
2020/12/07 06:32:11;;;;;;;;;;;;;;;3.27;73.58;97116.66;1675125;85;24760;-86
2020/12/07 06:34:58;;;;;;;;;;;;;;;3.27;73.60;97123.11;1669996;85;22305;-87
2020/12/07 06:37:44;;;;;;;;;;;;;;;3.24;73.63;97109.90;1648282;85;25953;-87
2020/12/07 06:40:31;;;;;;;;;;;;;;;3.26;73.63;97118.86;1669772;85;24821;-86
2020/12/07 06:43:20;;;;;;;;;;;;;;;3.34;73.64;97138.14;1675047;85;20267;-86
2020/12/07 06:46:06;;;;;;;;;;;;;;;3.31;73.67;97121.53;1675539;85;24700;-86
2020/12/07 06:48:52;;;;;;;;;;;;;;;3.34;73.68;97126.96;1671206;85;22107;-85
2020/12/07 06:51:39;;;;;;;;;;;;;;;3.31;73.72;97132.34;1676680;85;26138;-85
2020/12/07 06:57:30;;;;;;;;;;;;;;;3.24;73.75;97135.75;1650885;85;20296;-86
2020/12/07 07:00:17;;;;;;;;;;;;;;;3.33;73.76;97133.05;1676445;85;24663;-86
2020/12/07 07:03:08;;;;;;;;;;;;;;;3.32;73.81;97137.88;1652744;83;21825;-86
2020/12/07 07:05:58;;;;;;;;;;;;;;;3.31;73.83;97140.09;1710690;82;26129;-86
2020/12/07 07:08:45;;;;;;;;;;;;;;;3.32;73.85;97132.70;1711106;82;24644;-86
2020/12/07 07:11:31;;;;;;;;;;;;;;;3.36;73.87;97154.39;1716614;82;20272;-85
2020/12/07 07:14:18;;;;;;;;;;;;;;;3.38;73.91;97145.72;1719567;82;24994;-86
2020/12/07 07:17:05;;;;;;;;;;;;;;;3.39;73.94;97143.02;1708327;82;22161;-86
2020/12/07 07:19:51;;;;;;;;;;;;;;;3.35;73.97;97145.44;1701466;83;25964;-86
2020/12/07 07:22:40;;;;;;;;;;;;;;;3.41;73.99;97145.06;1730376;82;24591;-86
2020/12/07 07:25:42;;;;;;;;;;;;;;;3.44;74.02;97139.68;1688055;83;20296;-86
2020/12/07 07:28:19;;;;;;;;;;;;;;;3.52;74.04;97148.27;1709706;82;25424;-86
2020/12/07 07:31:08;;;;;;;;;;;;;;;3.64;74.07;97128.95;1699712;83;22321;-85
2020/12/07 07:33:54;;;;;;;;;;;;;;;3.76;74.10;97158.39;1740890;81;26111;-85
2020/12/07 07:36:45;;;;;;;;;;;;;;;3.84;74.17;97150.13;1723276;81;24780;-85
2020/12/07 07:39:30;;;;;;;;;;;;;;;3.83;74.20;97138.11;1717894;82;20279;-84
2020/12/07 07:45:04;;;;;;;;;;;;;;;3.86;74.23;97150.41;1725380;82;22178;-84
2020/12/07 07:47:56;;;;;;;;;;;;;;;3.92;74.24;97139.67;1731405;82;26109;-83
2020/12/07 07:50:53;;;;;;;;;;;;;;;3.98;74.26;97141.04;1726615;82;24683;-83
2020/12/07 07:54:08;;;;;;;;;;;;;;;4.09;74.27;97141.18;1725215;82;20386;-84
2020/12/07 08:00:27;;;;;;;;;;;;;;;4.41;74.32;97150.27;1733026;82;22434;-84
2020/12/07 08:06:37;;;;;;;;;;;;;;;4.40;74.36;97163.31;1677761;82;25193;-83
2020/12/07 08:12:44;;;;;;;;;;;;;;;4.43;74.34;97167.81;1776064;79;24056;-83
2020/12/07 08:18:26;;;;;;;;;;;;;;;4.48;74.31;97170.09;1727250;79;26183;-83
2020/12/07 08:21:19;;;;;;;;;;;;;;;4.46;74.31;97170.22;1762904;79;24809;-83
2020/12/07 08:24:09;;;;;;;;;;;;;;;4.43;74.30;97169.11;1704311;82;20302;-83
2020/12/07 08:26:56;;;;;;;;;;;;;;;4.38;74.29;97158.22;1701018;83;25408;-83
2020/12/07 08:29:42;;;;;;;;;;;;;;;4.33;74.29;97160.75;1717318;82;22234;-82
2020/12/07 08:32:29;;;;;;;;;;;;;;;4.32;74.27;97159.91;1723163;82;26288;-83
2020/12/07 08:35:18;;;;;;;;;;;;;;;4.40;74.29;97155.55;1712379;82;25636;-82
2020/12/07 08:38:04;;;;;;;;;;;;;;;4.47;74.31;97165.37;1700901;82;20276;-83
2020/12/07 08:40:51;;;;;;;;;;;;;;;4.50;74.33;97175.56;1762421;79;25494;-83
2020/12/07 08:43:41;;;;;;;;;;;;;;;4.51;74.36;97175.09;1762892;79;22387;-84
2020/12/07 08:46:28;;;;;;;;;;;;;;;4.52;74.37;97176.77;1733199;81;26209;-84
2020/12/07 08:49:15;;;;;;;;;;;;;;;4.57;74.38;97177.29;1736060;81;24710;-83
2020/12/07 08:52:01;;;;;;;;;;;;;;;4.62;74.39;97173.46;1730920;81;20504;-83
2020/12/07 08:54:54;;;;;;;;;;;;;;;4.66;74.41;97174.55;1707159;82;24515;-84
2020/12/07 08:57:41;;;;;;;;;;;;;;;4.70;74.43;97176.82;1722014;82;22140;-83
2020/12/07 09:00:29;;;;;;;;;;;;;;;4.78;74.46;97172.44;1718690;82;27085;-83
2020/12/07 09:03:25;;;;;;;;;;;;;;;4.81;74.49;97170.92;1716069;82;24709;-83
2020/12/07 09:06:15;;;;;;;;;;;;;;;4.84;74.48;97181.10;1709845;82;20264;-84
2020/12/07 09:09:05;;;;;;;;;;;;;;;4.91;74.48;97171.99;1715383;82;24654;-83
2020/12/07 09:11:41;;;;;;;;;;;;;;;4.96;74.50;97168.13;1720292;82;22153;-83
2020/12/07 09:17:39;;;;;;;;;;;;;;;5.13;74.52;97188.22;1721159;82;24703;-83
2020/12/07 09:20:27;;;;;;;;;;;;;;;5.22;74.51;97187.59;1719070;82;20451;-83
2020/12/07 09:23:13;;;;;;;;;;;;;;;5.29;74.52;97191.43;1725348;82;24596;-83
2020/12/07 09:25:59;;;;;;;;;;;;;;;5.36;74.52;97196.08;1726592;82;22309;-82
2020/12/07 09:28:57;;;;;;;;;;;;;;;5.43;74.50;97188.24;1726838;82;22097;-82
2020/12/07 09:31:45;;;;;;;;;;;;;;;5.46;74.49;97184.59;1717116;82;24584;-83
2020/12/07 09:34:35;;;;;;;;;;;;;;;5.42;74.49;97184.45;1722592;81;20605;-83
2020/12/07 09:37:21;;;;;;;;;;;;;;;5.40;74.42;97189.73;1704553;83;25653;-83
2020/12/07 09:40:10;;;;;;;;;;;;;;;5.39;74.38;97206.26;1724496;82;22214;-84
2020/12/07 09:42:56;;;;;;;;;;;;;;;5.36;74.36;97194.78;1715951;82;27108;-82
2020/12/07 09:45:43;;;;;;;;;;;;;;;5.31;74.30;97198.63;1715657;82;24829;-83
2020/12/07 09:48:30;;;;;;;;;;;;;;;5.30;74.26;97201.68;1697883;83;20362;-83
2020/12/07 09:51:18;;;;;;;;;;;;;;;5.33;74.22;97198.06;1723704;82;24623;-83
2020/12/07 09:54:06;;;;;;;;;;;;;;;5.32;74.21;97198.98;1719772;82;22240;-83
2020/12/07 09:56:55;;;;;;;;;;;;;;;5.32;74.19;97193.34;1720639;82;26079;-83
2020/12/07 09:59:42;;;;;;;;;;;;;;;5.36;74.16;97193.94;1688178;83;25291;-83
2020/12/07 10:02:29;;;;;;;;;;;;;;;5.39;74.16;97198.94;1723334;82;20671;-84
2020/12/07 10:05:18;;;;;;;;;;;;;;;5.38;74.14;97195.52;1719645;82;24707;-83
2020/12/07 10:08:05;;;;;;;;;;;;;;;5.39;74.14;97201.07;1731850;82;22218;-83
2020/12/07 10:10:53;;;;;;;;;;;;;;;5.42;74.12;97190.47;1700464;82;25864;-83
2020/12/07 10:13:42;;;;;;;;;;;;;;;5.59;74.09;97187.17;1728459;82;24574;-83
2020/12/07 10:16:34;;;;;;;;;;;;;;;6.04;74.10;97195.66;1729968;82;21107;-83
2020/12/07 10:19:21;;;;;;;;;;;;;;;6.34;74.17;97185.27;1732444;82;24689;-83
2020/12/07 10:22:08;;;;;;;;;;;;;;;6.68;74.21;97187.89;1700710;82;22074;-83
2020/12/07 10:24:55;;;;;;;;;;;;;;;7.11;74.27;97190.70;1725975;82;26311;-84
2020/12/07 10:27:41;;;;;;;;;;;;;;;7.61;74.30;97179.96;1676736;82;24609;-84
2020/12/07 10:30:27;;;;;;;;;;;;;;;8.02;74.33;97184.03;1725604;82;20338;-84
2020/12/07 10:33:14;;;;;;;;;;;;;;;8.45;74.33;97183.25;1731066;82;24666;-84
2020/12/07 10:36:00;;;;;;;;;;;;;;;8.80;74.26;97176.78;1731797;82;22228;-83
2020/12/07 10:38:40;;;;;;;;;;;;;;;9.12;74.18;97172.80;1726454;82;26195;-85
2020/12/07 10:41:19;;;;;;;;;;;;;;;9.34;74.08;97182.25;1722220;82;24691;-85
2020/12/07 10:44:06;;;;;;;;;;;;;;;9.54;73.97;97168.81;1723462;82;20377;-84
2020/12/07 10:46:53;;;;;;;;;;;;;;;9.72;73.81;97182.89;1731601;82;24786;-85
2020/12/07 10:49:39;;;;;;;;;;;;;;;9.86;73.66;97173.87;1727959;81;22209;-85
2020/12/07 10:52:26;;;;;;;;;;;;;;;9.99;73.49;97197.95;1757682;80;25933;-84
2020/12/07 10:55:16;;;;;;;;;;;;;;;10.10;73.29;97190.00;1771151;79;24682;-84
2020/12/07 10:58:04;;;;;;;;;;;;;;;10.21;73.04;97189.09;1739053;80;20655;-86
2020/12/07 11:00:54;;;;;;;;;;;;;;;10.30;72.83;97196.14;1768692;79;24622;-86
2020/12/07 11:03:42;;;;;;;;;;;;;;;10.38;72.65;97194.49;1747270;80;22983;-85
2020/12/07 11:09:30;;;;;;;;;;;;;;;10.50;72.29;97193.88;1723967;82;25673;-86
2020/12/07 11:12:21;;;;;;;;;;;;;;;10.56;72.06;97194.65;1719130;83;20490;-85
2020/12/07 11:15:07;;;;;;;;;;;;;;;10.58;71.86;97204.98;1736913;82;24908;-85
2020/12/07 11:17:53;;;;;;;;;;;;;;;10.58;71.63;97192.73;1705123;82;23207;-85
2020/12/07 11:20:40;;;;;;;;;;;;;;;10.62;71.40;97184.12;1700829;83;26156;-85
2020/12/07 11:23:26;;;;;;;;;;;;;;;10.65;71.18;97193.81;1722227;82;24520;-85
2020/12/07 11:26:17;;;;;;;;;;;;;;;10.69;70.99;97179.99;1675345;83;20561;-84
2020/12/07 11:32:19;;;;;;;;;;;;;;;10.72;70.62;97182.32;1719167;82;22405;-85
2020/12/07 11:35:05;;;;;;;;;;;;;;;10.74;70.40;97177.30;1706684;82;27086;-84
2020/12/07 11:37:59;;;;;;;;;;;;;;;10.75;70.23;97177.62;1705272;82;24639;-85
2020/12/07 11:40:58;;;;;;;;;;;;;;;10.76;70.08;97171.91;1717265;82;20474;-85
2020/12/07 11:43:48;;;;;;;;;;;;;;;10.75;69.84;97172.87;1731757;81;24971;-84
2020/12/07 11:49:08;;;;;;;;;;;;;;;10.71;69.48;97180.19;1713395;82;26195;-84
2020/12/07 11:51:54;;;;;;;;;;;;;;;10.70;69.33;97182.93;1717871;82;24543;-84
2020/12/07 11:54:41;;;;;;;;;;;;;;;10.67;69.19;97172.75;1719035;82;20466;-84
2020/12/07 11:57:27;;;;;;;;;;;;;;;10.65;69.04;97179.90;1722696;82;24743;-84
2020/12/07 12:00:14;;;;;;;;;;;;;;;10.62;68.91;97184.12;1724489;81;22106;-84
2020/12/07 12:05:51;;;;;;;;;;;;;;;10.53;68.65;97192.80;1714093;82;25442;-83
2020/12/07 12:08:41;;;;;;;;;;;;;;;10.44;68.50;97199.18;1709808;83;20556;-86
2020/12/07 12:11:27;;;;;;;;;;;;;;;10.40;68.37;97203.04;1705735;83;24683;-85
2020/12/07 12:14:13;;;;;;;;;;;;;;;10.31;68.23;97192.06;1712318;83;22230;-86
2020/12/07 12:16:59;;;;;;;;;;;;;;;10.29;68.12;97186.16;1708602;83;26127;-85
2020/12/07 12:19:46;;;;;;;;;;;;;;;10.26;68.05;97178.58;1711240;83;24614;-85
2020/12/07 12:22:33;;;;;;;;;;;;;;;10.21;67.93;97182.08;1710942;82;20354;-85
2020/12/07 12:25:22;;;;;;;;;;;;;;;10.14;67.84;97167.88;1709377;82;25511;-85
2020/12/07 12:28:08;;;;;;;;;;;;;;;10.11;67.75;97176.45;1711120;83;22366;-84
2020/12/07 12:30:54;;;;;;;;;;;;;;;10.08;67.67;97178.40;1713113;83;26327;-85
2020/12/07 12:33:43;;;;;;;;;;;;;;;10.05;67.58;97180.44;1712968;83;24650;-85
2020/12/07 12:36:30;;;;;;;;;;;;;;;10.07;67.51;97183.75;1711017;83;20439;-85
2020/12/07 12:39:17;;;;;;;;;;;;;;;10.07;67.47;97186.37;1711465;82;24920;-85
2020/12/07 12:42:04;;;;;;;;;;;;;;;10.07;67.40;97185.06;1710641;83;22216;-84
2020/12/07 12:44:50;;;;;;;;;;;;;;;10.03;67.30;97175.84;1683021;83;26221;-85
2020/12/07 12:47:25;;;;;;;;;;;;;;;10.06;67.23;97171.64;1706133;83;25501;-84
2020/12/07 12:50:14;;;;;;;;;;;;;;;10.07;67.15;97161.53;1709833;83;20502;-84
2020/12/07 12:53:01;;;;;;;;;;;;;;;10.04;67.08;97165.23;1700967;83;24703;-84
2020/12/07 12:55:48;;;;;;;;;;;;;;;9.98;67.00;97170.19;1712814;83;22338;-85
2020/12/07 12:58:35;;;;;;;;;;;;;;;9.95;66.88;97174.36;1709683;83;27928;-84
2020/12/07 13:01:25;;;;;;;;;;;;;;;9.96;66.81;97182.56;1679919;83;24624;-84
2020/12/07 13:04:12;;;;;;;;;;;;;;;9.94;66.76;97175.31;1711509;83;20510;-84
2020/12/07 13:06:58;;;;;;;;;;;;;;;9.93;66.69;97184.94;1714639;82;24844;-85
2020/12/07 13:09:45;;;;;;;;;;;;;;;9.93;66.65;97186.25;1719212;82;22110;-84
2020/12/07 13:12:31;;;;;;;;;;;;;;;9.91;66.59;97188.19;1696505;83;26082;-84
2020/12/07 13:15:17;;;;;;;;;;;;;;;9.93;66.54;97194.09;1725564;83;24587;-85
2020/12/07 13:18:06;;;;;;;;;;;;;;;9.93;66.51;97186.73;1719897;83;20361;-84
2020/12/07 13:20:57;;;;;;;;;;;;;;;9.95;66.48;97201.33;1719725;83;25686;-85
2020/12/07 13:23:45;;;;;;;;;;;;;;;9.96;66.45;97202.98;1724397;83;22048;-85
2020/12/07 13:26:38;;;;;;;;;;;;;;;9.94;66.43;97206.20;1720076;83;26227;-85
2020/12/07 13:29:21;;;;;;;;;;;;;;;9.93;66.42;97208.46;1719063;82;24957;-84
2020/12/07 13:32:08;;;;;;;;;;;;;;;9.92;66.41;97213.84;1699835;83;20342;-84
2020/12/07 13:34:55;;;;;;;;;;;;;;;9.88;66.36;97228.11;1721070;83;24750;-84
2020/12/07 13:37:41;;;;;;;;;;;;;;;9.91;66.32;97237.01;1720507;83;22111;-85
2020/12/07 13:40:33;;;;;;;;;;;;;;;9.90;66.29;97230.12;1713455;83;26999;-85
2020/12/07 13:43:20;;;;;;;;;;;;;;;9.90;66.25;97224.42;1714070;83;24699;-85
2020/12/07 13:46:07;;;;;;;;;;;;;;;9.87;66.22;97222.05;1715632;83;20646;-85
2020/12/07 13:48:54;;;;;;;;;;;;;;;9.89;66.18;97216.70;1718213;83;24743;-85
2020/12/07 13:51:41;;;;;;;;;;;;;;;9.89;66.16;97219.31;1723798;81;22140;-84
2020/12/07 13:54:31;;;;;;;;;;;;;;;9.84;66.13;97211.05;1719425;83;26061;-83
2020/12/07 13:57:17;;;;;;;;;;;;;;;9.82;66.08;97216.91;1721988;82;24737;-83
2020/12/07 13:59:52;;;;;;;;;;;;;;;9.81;66.02;97211.33;1704010;82;20274;-84
2020/12/07 14:02:38;;;;;;;;;;;;;;;9.78;65.99;97214.19;1725959;81;25470;-84
2020/12/07 14:05:24;;;;;;;;;;;;;;;9.77;65.95;97213.84;1717277;83;22134;-83
2020/12/07 14:08:13;;;;;;;;;;;;;;;9.70;65.91;97220.56;1698703;83;27796;-83
2020/12/07 14:11:00;;;;;;;;;;;;;;;9.63;65.88;97228.92;1718196;83;24632;-83
2020/12/07 14:13:46;;;;;;;;;;;;;;;9.40;65.79;97231.81;1713179;83;20281;-83
2020/12/07 14:16:21;;;;;;;;;;;;;;;9.16;65.69;97250.37;1725713;82;24893;-83
2020/12/07 14:19:14;;;;;;;;;;;;;;;8.75;65.57;97249.37;1711372;83;22151;-84
2020/12/07 14:52:35;;;;;;;;;;;;;;;6.92;65.56;97261.97;1714882;83;22120;-84
2020/12/07 14:55:25;;;;;;;;;;;;;;;6.99;65.67;97258.42;1691769;83;24646;-83
2020/12/07 15:21:50;;;;;;;;;;;;;;;5.99;66.26;97287.34;1685239;85;26219;-83
2020/12/07 15:27:55;;;;;;;;;;;;;;;5.86;66.38;97295.56;1684933;85;20454;-83
2020/12/07 15:33:51;;;;;;;;;;;;;;;5.78;66.57;97310.36;1679733;85;20287;-83
2020/12/07 15:36:36;;;;;;;;;;;;;;;5.74;66.68;97311.52;1687747;83;26218;-83
2020/12/07 15:39:22;;;;;;;;;;;;;;;5.66;66.75;97317.72;1684834;85;24690;-84
2020/12/07 15:51:19;;;;;;;;;;;;;;;5.93;67.15;97312.89;1702039;82;25925;-83
2020/12/07 15:53:56;;;;;;;;;;;;;;;5.92;67.23;97315.95;1726274;82;24844;-84
2020/12/07 15:59:43;;;;;;;;;;;;;;;6.17;67.39;97306.80;1699225;82;24440;-83
2020/12/07 16:02:30;;;;;;;;;;;;;;;6.39;67.46;97309.19;1699302;82;21704;-84
2020/12/07 16:05:11;;;;;;;;;;;;;;;6.40;67.53;97304.36;1705235;82;25917;-84
2020/12/07 16:07:58;;;;;;;;;;;;;;;6.43;67.59;97309.35;1706317;82;24869;-84
2020/12/07 16:13:31;;;;;;;;;;;;;;;6.40;67.68;97322.55;1692230;83;24880;-83
2020/12/07 16:16:08;;;;;;;;;;;;;;;6.30;67.67;97331.00;1713702;82;22146;-83
2020/12/07 16:19:00;;;;;;;;;;;;;;;6.30;67.69;97334.06;1718859;82;27011;-83
2020/12/07 16:21:47;;;;;;;;;;;;;;;6.25;67.70;97337.45;1703513;83;24675;-84
2020/12/07 16:24:28;;;;;;;;;;;;;;;6.03;67.73;97326.89;1725302;82;20553;-83
2020/12/07 16:32:54;;;;;;;;;;;;;;;5.84;67.76;97346.76;1700535;82;25923;-84
2020/12/07 16:35:41;;;;;;;;;;;;;;;5.87;67.82;97350.49;1722060;82;24616;-84